»·PEaware :: N951TA KEMT-KSBA

N951TA :: KEMT-KSBA

FLIGHT INFORMATION

Flight Status: Arrived
Operator: Privately registered:
United States
More flights under this callsign
Pilot: John H. (7647)
Aircraft: CESSNA 172 SKYHAWK
(C172)
More flights by this aircraft type
Origin: KEMT El Monte
United States
Destination: KSBA Santa Barbara Mun
United States
More flights between these airports :: More routes between these airports
Route: VNY FIM
File this flight plan on PilotEdge
Remarks:
Altitude:
(Current/Filed)
3,500ft
Speed:
(Current/Filed)
120kts
Departed: 08-Jul-18 11:41 AM
Arrived: 08-Jul-18 12:39 PM
Distance/Time
Traveled:
92nm/0:57
Distance/Time
To Go:
Arrived

Flight Plot

Page will automatically refresh every two minutes.

Flight plan parsing failed; only flown route is shown


Map Options




Map Legend


Flown Route
Filed Route
Departure Airport
Arrival Airport
Navaid (VOR, NDB)
Fix

Horizontal Profiles

Position Reports

Time Latitude Longitude Heading Altitude Ground
Speed
08-Jul-18 11:31 34.086053 -118.033304 24 290ft 0kts
08-Jul-18 11:32 34.086053 -118.033304 24 290ft 0kts
08-Jul-18 11:33 34.086053 -118.033304 24 290ft 0kts
08-Jul-18 11:34 34.086053 -118.033304 24 290ft 0kts
08-Jul-18 11:35 34.086053 -118.033304 24 290ft 0kts
08-Jul-18 11:36 34.086053 -118.033304 24 290ft 0kts
08-Jul-18 11:37 34.086053 -118.033304 24 290ft 0kts
08-Jul-18 11:38 34.086053 -118.033304 24 290ft 0kts
08-Jul-18 11:39 34.088294 -118.032916 26 291ft 19kts
08-Jul-18 11:40 34.090762 -118.031664 295 294ft 0kts
08-Jul-18 11:41 34.090839 -118.031889 286 293ft 8kts
08-Jul-18 11:42 34.076783 -118.041169 220 673ft 78kts
08-Jul-18 11:43 34.082415 -118.066044 290 1384ft 82kts
08-Jul-18 11:44 34.089190 -118.092543 281 2098ft 84kts
08-Jul-18 11:45 34.094559 -118.117277 288 2705ft 85kts
08-Jul-18 11:46 34.103613 -118.143861 289 3276ft 90kts
08-Jul-18 11:47 34.112760 -118.172862 297 3705ft 102kts
08-Jul-18 11:48 34.127597 -118.167026 75 3681ft 101kts
08-Jul-18 11:49 34.111451 -118.157006 270 3459ft 118kts
08-Jul-18 11:50 34.124232 -118.191382 298 3389ft 106kts
08-Jul-18 11:51 34.142310 -118.217313 315 3477ft 104kts
08-Jul-18 11:52 34.160590 -118.244909 302 3476ft 106kts
08-Jul-18 11:53 34.175308 -118.276079 296 3476ft 108kts
08-Jul-18 11:54 34.185260 -118.310320 288 3477ft 109kts
08-Jul-18 11:55 34.189754 -118.345975 262 3477ft 109kts
08-Jul-18 11:56 34.193346 -118.380908 299 3477ft 109kts
08-Jul-18 11:57 34.205373 -118.413499 259 3544ft 109kts
08-Jul-18 11:58 34.199387 -118.444382 332 3504ft 110kts
08-Jul-18 11:59 34.220392 -118.470096 303 3559ft 114kts
08-Jul-18 12:00 34.234762 -118.505792 293 3556ft 121kts
08-Jul-18 12:01 34.247904 -118.543705 293 3562ft 123kts
08-Jul-18 12:02 34.261278 -118.580701 285 3556ft 122kts
08-Jul-18 12:03 34.273559 -118.613855 281 3937ft 102kts
08-Jul-18 12:04 34.280337 -118.645670 283 4453ft 93kts
08-Jul-18 12:05 34.287655 -118.671145 283 4992ft 84kts
08-Jul-18 12:06 34.295807 -118.696782 284 5511ft 82kts
08-Jul-18 12:07 34.304660 -118.723457 287 5933ft 90kts
08-Jul-18 12:08 34.314408 -118.752213 287 6358ft 91kts
08-Jul-18 12:09 34.324706 -118.782394 288 6508ft 108kts
08-Jul-18 12:10 34.336599 -118.817014 287 6507ft 113kts
08-Jul-18 12:11 34.348114 -118.850741 288 6498ft 108kts
08-Jul-18 12:12 34.357918 -118.882976 272 6502ft 98kts
08-Jul-18 12:13 34.360786 -118.915397 270 6496ft 97kts
08-Jul-18 12:14 34.363335 -118.947239 271 6501ft 95kts
08-Jul-18 12:15 34.365804 -118.978899 271 6505ft 94kts
08-Jul-18 12:16 34.368241 -119.010646 271 6504ft 96kts
08-Jul-18 12:17 34.370827 -119.044887 271 6496ft 105kts
08-Jul-18 12:18 34.373441 -119.079180 271 6493ft 101kts
08-Jul-18 12:19 34.375931 -119.113070 272 6391ft 108kts
08-Jul-18 12:20 34.378807 -119.150392 271 5883ft 109kts
08-Jul-18 12:21 34.381511 -119.186432 271 5390ft 106kts
08-Jul-18 12:22 34.384101 -119.221342 272 4981ft 103kts
08-Jul-18 12:23 34.386460 -119.256084 271 4578ft 103kts
08-Jul-18 12:24 34.388440 -119.291610 271 4495ft 107kts
08-Jul-18 12:25 34.390661 -119.323591 272 4494ft 107kts
08-Jul-18 12:26 34.393259 -119.359405 272 4493ft 105kts
08-Jul-18 12:27 34.395786 -119.394291 272 4493ft 104kts
08-Jul-18 12:28 34.398286 -119.429127 271 4495ft 102kts
08-Jul-18 12:29 34.400699 -119.462537 273 4232ft 107kts
08-Jul-18 12:30 34.403405 -119.499908 274 3546ft 114kts
08-Jul-18 12:31 34.406202 -119.538957 274 2850ft 117kts
08-Jul-18 12:32 34.408859 -119.576737 273 2492ft 104kts
08-Jul-18 12:33 34.411291 -119.611544 273 2493ft 108kts
08-Jul-18 12:34 34.414097 -119.648310 282 2491ft 111kts
08-Jul-18 12:35 34.421824 -119.683850 282 2494ft 111kts
08-Jul-18 12:36 34.429023 -119.720458 271 2421ft 113kts
08-Jul-18 12:37 34.429748 -119.758310 266 1771ft 112kts
08-Jul-18 12:38 34.428909 -119.793472 266 1080ft 86kts
08-Jul-18 12:39 34.428294 -119.818843 265 404ft 69kts
08-Jul-18 12:40 34.427794 -119.836910 269 13ft 30kts
08-Jul-18 12:41 34.428588 -119.838944 353 13ft 1kts
08-Jul-18 12:42 34.431300 -119.839174 168 13ft 6kts
08-Jul-18 12:43 34.431285 -119.839170 166 13ft 0kts

Navigation Log

Ident Type
Flight plan parsing failed, navigation log unavailable